createdAt,value
2018-09-06T00:00:54.782Z,16.60
2018-09-06T00:03:23.610Z,16.60
2018-09-06T00:05:52.339Z,16.60
2018-09-06T00:08:21.024Z,16.60
2018-09-06T00:10:49.766Z,16.60
2018-09-06T00:13:18.582Z,16.60
2018-09-06T00:15:47.471Z,16.60
2018-09-06T00:18:16.156Z,16.70
2018-09-06T00:20:44.840Z,16.60
2018-09-06T00:23:13.524Z,16.60
2018-09-06T00:25:42.198Z,16.60
2018-09-06T00:28:10.867Z,16.50
2018-09-06T00:30:39.613Z,16.50
2018-09-06T00:33:08.333Z,16.40
2018-09-06T00:35:37.048Z,16.40
2018-09-06T00:38:05.739Z,16.50
2018-09-06T00:40:34.443Z,16.50
2018-09-06T00:43:03.108Z,16.60
2018-09-06T00:45:31.817Z,16.60
2018-09-06T00:48:00.747Z,16.50
2018-09-06T00:50:33.509Z,16.50
2018-09-06T00:53:02.240Z,16.60
2018-09-06T00:55:30.931Z,16.60
2018-09-06T00:57:59.914Z,16.60
2018-09-06T01:00:28.577Z,16.60
2018-09-06T01:02:57.237Z,16.60
2018-09-06T01:05:25.948Z,16.60
2018-09-06T01:07:54.667Z,16.60
2018-09-06T01:10:23.347Z,16.60
2018-09-06T01:12:51.994Z,16.60
2018-09-06T01:15:20.722Z,16.70
2018-09-06T01:17:49.375Z,16.70
2018-09-06T01:20:18.097Z,16.70
2018-09-06T01:22:46.741Z,16.70
2018-09-06T01:25:15.489Z,16.70
2018-09-06T01:27:44.219Z,16.60
2018-09-06T01:30:12.914Z,16.50
2018-09-06T01:32:41.647Z,16.40
2018-09-06T01:35:10.325Z,16.30
2018-09-06T01:37:38.954Z,16.30
2018-09-06T01:40:07.726Z,16.30
2018-09-06T01:42:36.481Z,16.30
2018-09-06T01:45:05.203Z,16.30
2018-09-06T01:47:34.173Z,16.30
2018-09-06T01:50:02.872Z,16.30
2018-09-06T01:52:31.522Z,16.30
2018-09-06T01:55:00.156Z,16.30
2018-09-06T01:57:28.796Z,16.50
2018-09-06T01:59:57.451Z,16.50
2018-09-06T02:02:26.687Z,16.50
2018-09-06T02:04:55.396Z,16.50
2018-09-06T02:07:24.039Z,16.40
2018-09-06T02:09:52.660Z,16.50
2018-09-06T02:12:21.583Z,16.50
2018-09-06T02:14:50.467Z,16.40
2018-09-06T02:17:19.145Z,16.40
2018-09-06T02:19:47.740Z,16.50
2018-09-06T02:22:16.370Z,16.50
2018-09-06T02:24:45.085Z,16.50
2018-09-06T02:27:13.980Z,16.50
2018-09-06T02:29:42.673Z,16.50
2018-09-06T02:32:11.370Z,16.60
2018-09-06T02:34:40.104Z,16.50
2018-09-06T02:37:08.763Z,16.50
2018-09-06T02:39:37.574Z,16.50
2018-09-06T02:42:06.412Z,16.60
2018-09-06T02:44:35.229Z,16.60
2018-09-06T02:47:03.906Z,16.60
2018-09-06T02:49:37.907Z,16.60
2018-09-06T02:52:06.506Z,16.60
2018-09-06T02:54:35.390Z,16.60
2018-09-06T02:57:04.790Z,16.70
2018-09-06T02:59:33.662Z,16.60
2018-09-06T03:02:02.337Z,16.60
2018-09-06T03:04:30.997Z,16.50
2018-09-06T03:06:59.612Z,16.50
2018-09-06T03:09:28.421Z,16.50
2018-09-06T03:11:59.899Z,16.50
2018-09-06T03:14:28.741Z,16.50
2018-09-06T03:16:57.567Z,16.50
2018-09-06T03:19:26.452Z,16.50
2018-09-06T03:21:55.180Z,16.50
2018-09-06T03:24:23.951Z,16.50
2018-09-06T03:26:52.585Z,16.50
2018-09-06T03:29:21.484Z,16.50
2018-09-06T03:31:51.064Z,16.50
2018-09-06T03:34:19.626Z,16.50
2018-09-06T03:36:48.477Z,16.50
2018-09-06T03:39:17.588Z,16.50
2018-09-06T03:41:46.479Z,16.60
2018-09-06T03:44:15.483Z,16.50
2018-09-06T03:46:44.115Z,16.30
2018-09-06T03:49:12.987Z,16.20
2018-09-06T03:51:42.116Z,16.20
2018-09-06T03:54:10.723Z,16.20
2018-09-06T03:56:39.320Z,16.10
2018-09-06T03:59:08.229Z,16.10
2018-09-06T04:01:36.902Z,16.10
2018-09-06T04:04:05.578Z,16.10
2018-09-06T04:06:34.531Z,16.10
2018-09-06T04:09:03.461Z,16.10
2018-09-06T04:11:32.297Z,16.00
2018-09-06T04:14:01.969Z,15.90
2018-09-06T04:16:31.059Z,15.90
2018-09-06T04:19:00.196Z,15.80
2018-09-06T04:21:28.961Z,15.80
2018-09-06T04:23:57.578Z,15.80
2018-09-06T04:26:26.196Z,15.80
2018-09-06T04:28:55.473Z,15.80
2018-09-06T04:31:24.221Z,15.80
2018-09-06T04:33:52.975Z,15.90
2018-09-06T04:36:22.419Z,15.90
2018-09-06T04:38:51.030Z,15.80
2018-09-06T04:41:19.605Z,15.80
2018-09-06T04:43:48.416Z,15.70
2018-09-06T04:46:17.004Z,15.70
2018-09-06T04:48:45.613Z,15.70
2018-09-06T04:51:14.271Z,15.70
2018-09-06T04:53:43.350Z,15.60
2018-09-06T04:56:11.950Z,15.60
2018-09-06T04:58:40.762Z,15.60
2018-09-06T05:01:09.661Z,15.60
2018-09-06T05:03:38.395Z,15.60
2018-09-06T05:06:07.352Z,15.60
2018-09-06T05:08:36.112Z,15.60
2018-09-06T05:11:05.046Z,15.70
2018-09-06T05:13:33.638Z,15.80
2018-09-06T05:16:02.256Z,15.80
2018-09-06T05:18:31.154Z,15.80
2018-09-06T05:21:00.611Z,15.80
2018-09-06T05:23:29.301Z,15.90
2018-09-06T05:25:57.987Z,15.90
2018-09-06T05:28:26.793Z,16.00
2018-09-06T05:30:55.841Z,16.00
2018-09-06T05:33:24.332Z,16.10
2018-09-06T05:35:53.029Z,16.10
2018-09-06T05:38:22.024Z,16.20
2018-09-06T05:40:50.714Z,16.20
2018-09-06T05:43:19.394Z,16.30
2018-09-06T05:45:48.384Z,16.40
2018-09-06T05:48:17.363Z,16.40
2018-09-06T05:50:46.553Z,16.50
2018-09-06T05:53:15.799Z,16.60
2018-09-06T05:55:44.509Z,16.60
2018-09-06T05:58:13.194Z,16.70
2018-09-06T06:00:43.366Z,16.80
2018-09-06T06:03:12.571Z,16.90
2018-09-06T06:05:41.237Z,17.00
2018-09-06T06:08:21.292Z,17.10
2018-09-06T06:10:50.013Z,17.20
2018-09-06T06:13:18.681Z,17.20
2018-09-06T06:15:47.388Z,17.30
2018-09-06T06:18:16.081Z,17.40
2018-09-06T06:20:46.127Z,17.50
2018-09-06T06:23:15.241Z,17.50
2018-09-06T06:25:55.251Z,17.60
2018-09-06T06:28:24.330Z,17.70
2018-09-06T06:30:53.631Z,17.80
2018-09-06T06:33:23.041Z,17.90
2018-09-06T06:35:52.161Z,18.10
2018-09-06T06:38:21.325Z,18.20
2018-09-06T06:40:50.777Z,18.20
2018-09-06T06:43:19.661Z,18.30
2018-09-06T06:45:48.341Z,18.40
2018-09-06T06:48:17.542Z,18.60
2018-09-06T06:50:48.866Z,18.70
2018-09-06T06:53:18.913Z,18.90
2018-09-06T06:55:47.870Z,19.10
2018-09-06T06:58:16.792Z,19.20
2018-09-06T07:00:46.536Z,19.30
2018-09-06T07:03:15.477Z,19.50
2018-09-06T07:05:44.445Z,19.70
2018-09-06T07:08:16.750Z,19.90
2018-09-06T07:10:47.726Z,20.00
2018-09-06T07:13:17.052Z,20.20
2018-09-06T07:15:45.933Z,20.40
2018-09-06T07:18:15.150Z,20.50
2018-09-06T07:20:44.564Z,20.70
2018-09-06T07:23:14.116Z,20.90
2018-09-06T07:25:43.253Z,21.20
2018-09-06T07:28:12.301Z,21.50
2018-09-06T07:30:41.455Z,21.80
2018-09-06T07:33:10.415Z,22.10
2018-09-06T07:35:39.988Z,22.50
2018-09-06T07:38:08.661Z,22.80
2018-09-06T07:40:37.236Z,23.10
2018-09-06T07:43:05.918Z,23.10
2018-09-06T07:45:34.637Z,23.20
2018-09-06T07:48:03.302Z,23.20
2018-09-06T07:50:31.992Z,23.30
2018-09-06T07:53:00.703Z,23.40
2018-09-06T07:55:29.354Z,23.40
2018-09-06T07:57:58.055Z,23.50
2018-09-06T08:00:27.129Z,23.70
2018-09-06T08:02:55.901Z,23.90
2018-09-06T08:05:24.898Z,23.80
2018-09-06T08:07:53.817Z,23.90
2018-09-06T08:10:25.487Z,24.10
2018-09-06T08:12:54.246Z,24.30
2018-09-06T08:15:23.219Z,24.50
2018-09-06T08:17:51.894Z,24.80
2018-09-06T08:20:20.649Z,25.00
2018-09-06T08:22:49.306Z,25.20
2018-09-06T08:25:18.056Z,25.50
2018-09-06T08:27:46.720Z,25.80
2018-09-06T08:30:15.726Z,25.80
2018-09-06T08:32:44.536Z,26.00
2018-09-06T08:35:13.509Z,26.00
2018-09-06T08:37:42.357Z,26.20
2018-09-06T08:40:11.114Z,26.10
2018-09-06T08:42:39.948Z,25.80
2018-09-06T08:45:08.537Z,26.10
2018-09-06T08:47:37.191Z,26.50
2018-09-06T08:50:05.866Z,27.00
2018-09-06T08:52:34.508Z,27.30
2018-09-06T08:55:04.040Z,27.60
2018-09-06T08:57:32.577Z,27.90
2018-09-06T09:00:01.244Z,28.20
2018-09-06T09:02:30.440Z,28.50
2018-09-06T09:04:59.144Z,28.60
2018-09-06T09:07:27.978Z,28.70
2018-09-06T09:09:56.886Z,28.70
2018-09-06T09:12:25.812Z,28.80
2018-09-06T09:14:54.612Z,28.20
2018-09-06T09:17:23.214Z,27.70
2018-09-06T09:19:51.869Z,27.10
2018-09-06T09:22:20.553Z,26.70
2018-09-06T09:24:49.228Z,26.80
2018-09-06T09:27:18.482Z,27.10
2018-09-06T09:29:47.467Z,27.20
2018-09-06T09:32:16.257Z,27.30
2018-09-06T09:34:44.980Z,27.10
2018-09-06T09:37:13.792Z,26.80
2018-09-06T09:39:42.484Z,27.00
2018-09-06T09:42:11.355Z,27.00
2018-09-06T09:44:40.260Z,26.80
2018-09-06T09:49:36.855Z,27.20
2018-09-06T09:52:05.511Z,27.30
2018-09-06T09:54:34.155Z,27.40
2018-09-06T09:57:02.912Z,27.70
2018-09-06T09:59:34.829Z,27.50
2018-09-06T10:02:08.858Z,27.30
2018-09-06T10:04:43.501Z,26.80
2018-09-06T10:07:17.407Z,26.60
2018-09-06T10:09:46.061Z,26.50
2018-09-06T10:12:14.913Z,26.50
2018-09-06T10:14:43.516Z,26.70
2018-09-06T10:17:12.429Z,26.80
2018-09-06T10:19:41.104Z,27.00
2018-09-06T10:22:09.803Z,27.40
2018-09-06T10:24:38.580Z,27.60
2018-09-06T10:27:07.286Z,27.70
2018-09-06T10:29:35.941Z,27.80
2018-09-06T10:32:04.708Z,28.00
2018-09-06T10:34:33.514Z,28.20
2018-09-06T10:37:02.227Z,28.00
2018-09-06T10:39:30.924Z,28.00
2018-09-06T10:41:59.605Z,28.10
2018-09-06T10:44:28.296Z,28.20
2018-09-06T10:46:57.037Z,28.60
2018-09-06T10:49:25.728Z,29.00
2018-09-06T10:51:54.695Z,29.00
2018-09-06T10:54:23.439Z,28.90
2018-09-06T10:56:52.213Z,28.80
2018-09-06T10:59:20.843Z,29.00
2018-09-06T11:01:49.729Z,29.40
2018-09-06T11:04:18.410Z,29.70
2018-09-06T11:06:47.144Z,30.10
2018-09-06T11:09:15.829Z,29.90
2018-09-06T11:11:44.505Z,29.70
2018-09-06T11:14:13.083Z,29.20
2018-09-06T11:16:42.215Z,29.20
2018-09-06T11:19:11.409Z,29.30
2018-09-06T11:21:40.549Z,29.20
2018-09-06T11:24:09.407Z,29.00
2018-09-06T11:26:38.133Z,28.90
2018-09-06T11:29:06.808Z,29.00
2018-09-06T11:31:35.783Z,29.20
2018-09-06T11:34:04.733Z,29.70
2018-09-06T11:36:34.758Z,30.10
2018-09-06T11:39:04.331Z,30.10
2018-09-06T11:41:32.917Z,29.40
2018-09-06T11:44:01.727Z,29.00
2018-09-06T11:46:30.687Z,29.00
2018-09-06T11:48:59.507Z,29.40
2018-09-06T11:51:28.777Z,29.60
2018-09-06T11:53:57.925Z,29.90
2018-09-06T11:56:26.740Z,30.00
2018-09-06T11:58:56.260Z,30.20
2018-09-06T12:01:25.417Z,30.10
2018-09-06T12:03:54.113Z,29.90
2018-09-06T12:06:22.721Z,29.70
2018-09-06T12:08:51.652Z,29.80
2018-09-06T12:11:20.291Z,30.00
2018-09-06T12:13:48.999Z,30.00
2018-09-06T12:16:17.603Z,29.90
2018-09-06T12:18:46.233Z,29.60
2018-09-06T12:21:14.911Z,29.60
2018-09-06T12:23:43.511Z,29.60
2018-09-06T12:26:12.183Z,29.50
2018-09-06T12:28:40.924Z,29.50
2018-09-06T12:31:09.473Z,29.30
2018-09-06T12:33:38.126Z,29.50
2018-09-06T12:36:06.956Z,29.60
2018-09-06T12:38:35.644Z,30.00
2018-09-06T12:41:04.349Z,30.20
2018-09-06T12:43:33.118Z,30.40
2018-09-06T12:46:01.798Z,31.00
2018-09-06T12:48:30.462Z,31.70
2018-09-06T12:50:59.128Z,32.00
2018-09-06T12:53:27.907Z,31.90
2018-09-06T12:55:56.625Z,31.30
2018-09-06T12:58:25.611Z,30.70
2018-09-06T13:00:54.620Z,30.70
2018-09-06T13:03:24.045Z,30.70
2018-09-06T13:05:52.705Z,30.70
2018-09-06T13:08:21.291Z,30.80
2018-09-06T13:10:50.039Z,31.00
2018-09-06T13:13:18.744Z,30.90
2018-09-06T13:15:47.901Z,30.60
2018-09-06T13:18:17.010Z,31.00
2018-09-06T13:20:45.863Z,31.70
2018-09-06T13:23:14.635Z,31.60
2018-09-06T13:25:43.265Z,30.40
2018-09-06T13:28:11.897Z,29.80
2018-09-06T13:30:40.575Z,29.40
2018-09-06T13:33:09.940Z,29.60
2018-09-06T13:35:39.179Z,30.40
2018-09-06T13:38:10.481Z,30.70
2018-09-06T13:40:39.399Z,30.90
2018-09-06T13:43:08.164Z,31.00
2018-09-06T13:45:36.965Z,31.00
2018-09-06T13:48:05.689Z,31.20
2018-09-06T13:50:34.519Z,31.10
2018-09-06T13:53:03.103Z,31.10
2018-09-06T13:55:32.229Z,31.20
2018-09-06T13:58:01.112Z,31.50
2018-09-06T14:00:29.969Z,31.60
2018-09-06T14:02:58.560Z,31.30
2018-09-06T14:05:27.240Z,30.90
2018-09-06T14:07:55.884Z,30.90
2018-09-06T14:10:24.630Z,31.00
2018-09-06T14:12:53.564Z,30.90
2018-09-06T14:15:22.307Z,30.50
2018-09-06T14:17:51.115Z,30.60
2018-09-06T14:20:20.076Z,30.60
2018-09-06T14:22:48.779Z,30.20
2018-09-06T14:25:17.681Z,30.20
2018-09-06T14:27:49.395Z,30.10
2018-09-06T14:30:18.484Z,30.10
2018-09-06T14:32:47.252Z,30.30
2018-09-06T14:35:15.981Z,30.90
2018-09-06T14:37:44.812Z,31.60
2018-09-06T14:40:15.005Z,31.70
2018-09-06T14:42:44.376Z,31.00
2018-09-06T14:45:13.180Z,30.80
2018-09-06T14:47:41.966Z,30.50
2018-09-06T14:50:11.790Z,30.20
2018-09-06T14:52:41.056Z,29.60
2018-09-06T14:55:09.863Z,29.20
2018-09-06T14:57:38.673Z,28.80
2018-09-06T15:00:07.588Z,28.50
2018-09-06T15:02:39.262Z,27.90
2018-09-06T15:05:10.444Z,27.50
2018-09-06T15:07:40.790Z,27.30
2018-09-06T15:10:12.094Z,27.00
2018-09-06T15:12:41.129Z,26.90
2018-09-06T15:15:09.938Z,26.70
2018-09-06T15:17:39.601Z,26.50
2018-09-06T15:20:08.460Z,26.30
2018-09-06T15:22:38.119Z,26.30
2018-09-06T15:25:07.315Z,26.20
2018-09-06T15:27:36.631Z,26.10
2018-09-06T15:30:05.656Z,26.00
2018-09-06T15:32:35.867Z,25.90
2018-09-06T15:35:04.997Z,25.70
2018-09-06T15:37:34.107Z,25.50
2018-09-06T15:40:03.391Z,25.40
2018-09-06T15:42:32.383Z,25.30
2018-09-06T15:45:01.926Z,25.20
2018-09-06T15:47:31.645Z,25.10
2018-09-06T15:50:01.036Z,25.00
2018-09-06T15:52:30.426Z,25.00
2018-09-06T15:54:59.784Z,24.90
2018-09-06T15:57:28.493Z,24.90
2018-09-06T15:59:57.470Z,24.80
2018-09-06T16:02:26.290Z,24.80
2018-09-06T16:04:55.104Z,24.70
2018-09-06T16:07:23.728Z,24.50
2018-09-06T16:09:52.484Z,24.10
2018-09-06T16:12:21.148Z,23.90
2018-09-06T16:14:50.296Z,23.80
2018-09-06T16:17:19.660Z,23.70
2018-09-06T16:19:48.376Z,23.60
2018-09-06T16:22:17.270Z,23.50
2018-09-06T16:24:45.989Z,23.50
2018-09-06T16:27:15.666Z,23.40
2018-09-06T16:29:44.479Z,23.40
2018-09-06T16:32:13.155Z,23.30
2018-09-06T16:34:41.853Z,23.20
2018-09-06T16:37:10.812Z,23.10
2018-09-06T16:39:39.711Z,22.80
2018-09-06T16:42:08.637Z,22.60
2018-09-06T16:44:37.325Z,22.30
2018-09-06T16:47:05.984Z,22.10
2018-09-06T16:49:34.557Z,21.90
2018-09-06T16:52:03.138Z,21.80
2018-09-06T16:54:31.944Z,21.70
2018-09-06T16:57:00.533Z,21.60
2018-09-06T16:59:29.736Z,21.40
2018-09-06T17:01:58.374Z,21.30
2018-09-06T17:04:27.151Z,21.20
2018-09-06T17:06:55.799Z,21.10
2018-09-06T17:09:24.962Z,21.00
2018-09-06T17:11:53.928Z,20.90
2018-09-06T17:14:22.744Z,20.90
2018-09-06T17:16:51.401Z,20.80
2018-09-06T17:19:20.163Z,20.80
2018-09-06T17:21:48.827Z,20.80
2018-09-06T17:24:17.842Z,20.70
2018-09-06T17:26:46.441Z,20.70
2018-09-06T17:29:15.173Z,20.70
2018-09-06T17:31:44.075Z,20.70
2018-09-06T17:34:12.956Z,20.70
2018-09-06T17:36:41.718Z,20.70
2018-09-06T17:39:12.401Z,20.70
2018-09-06T17:41:41.367Z,20.60
2018-09-06T17:44:10.072Z,20.60
2018-09-06T17:46:38.808Z,20.60
2018-09-06T17:49:07.731Z,20.60
2018-09-06T17:51:36.659Z,20.50
2018-09-06T17:54:05.380Z,20.40
2018-09-06T17:56:34.400Z,20.40
2018-09-06T17:59:03.822Z,20.30
2018-09-06T18:01:36.117Z,20.30
2018-09-06T18:04:05.222Z,20.20
2018-09-06T18:06:34.109Z,20.10
2018-09-06T18:09:06.188Z,20.10
2018-09-06T18:11:34.821Z,20.10
2018-09-06T18:14:03.576Z,20.00
2018-09-06T18:16:32.754Z,20.00
2018-09-06T18:19:01.534Z,20.00
2018-09-06T18:21:30.512Z,20.00
2018-09-06T18:23:59.442Z,20.00
2018-09-06T18:26:28.540Z,20.00
2018-09-06T18:29:03.633Z,19.90
2018-09-06T18:31:32.661Z,19.90
2018-09-06T18:34:01.329Z,19.90
2018-09-06T18:36:40.899Z,19.90
2018-09-06T18:39:09.735Z,19.90
2018-09-06T18:41:38.601Z,19.80
2018-09-06T18:44:07.444Z,19.80
2018-09-06T18:46:36.039Z,19.80
2018-09-06T18:49:04.909Z,19.80
2018-09-06T18:51:34.080Z,19.80
2018-09-06T18:54:02.881Z,19.70
2018-09-06T18:56:31.593Z,19.70
2018-09-06T18:59:00.248Z,19.70
2018-09-06T19:01:28.885Z,19.60
2018-09-06T19:03:57.859Z,19.60
2018-09-06T19:06:27.260Z,19.60
2018-09-06T19:08:56.297Z,19.50
2018-09-06T19:11:25.438Z,19.50
2018-09-06T19:13:54.087Z,19.40
2018-09-06T19:16:24.557Z,19.40
2018-09-06T19:18:54.217Z,19.30
2018-09-06T19:21:22.887Z,19.30
2018-09-06T19:23:51.641Z,19.30
2018-09-06T19:26:20.890Z,19.30
2018-09-06T19:28:49.570Z,19.20
2018-09-06T19:31:20.288Z,19.30
2018-09-06T19:33:49.399Z,19.20
2018-09-06T19:36:18.122Z,19.20
2018-09-06T19:38:47.482Z,19.10
2018-09-06T19:41:16.187Z,19.00
2018-09-06T19:43:44.996Z,18.80
2018-09-06T19:46:15.515Z,18.70
2018-09-06T19:48:44.292Z,18.70
2018-09-06T19:51:14.815Z,18.60
2018-09-06T19:53:43.497Z,18.50
2018-09-06T19:56:13.093Z,18.40
2018-09-06T19:58:42.685Z,18.30
2018-09-06T20:01:12.640Z,18.20
2018-09-06T20:03:41.655Z,18.20
2018-09-06T20:06:10.382Z,18.20
2018-09-06T20:08:39.713Z,18.10
2018-09-06T20:11:08.437Z,18.10
2018-09-06T20:13:37.158Z,18.20
2018-09-06T20:16:06.124Z,18.20
2018-09-06T20:18:35.633Z,18.30
2018-09-06T20:21:13.815Z,18.30
2018-09-06T20:23:42.441Z,18.30
2018-09-06T20:26:11.974Z,18.30
2018-09-06T20:28:40.880Z,18.30
2018-09-06T20:31:09.562Z,18.20
2018-09-06T20:33:39.087Z,18.20
2018-09-06T20:36:09.763Z,18.20
2018-09-06T20:38:38.418Z,18.10
2018-09-06T20:41:07.078Z,18.10
2018-09-06T20:43:36.116Z,18.10
2018-09-06T20:46:04.973Z,18.10
2018-09-06T20:48:41.618Z,18.10
2018-09-06T20:51:10.151Z,18.00
2018-09-06T20:53:39.729Z,18.10
2018-09-06T20:56:08.384Z,18.10
2018-09-06T20:58:38.209Z,18.10
2018-09-06T21:01:06.855Z,18.00
2018-09-06T21:03:35.902Z,17.80
2018-09-06T21:06:04.524Z,17.60
2018-09-06T21:08:33.599Z,17.50
2018-09-06T21:11:02.213Z,17.50
2018-09-06T21:13:30.618Z,17.60
2018-09-06T21:15:59.557Z,17.80
2018-09-06T21:18:27.953Z,17.80
2018-09-06T21:20:56.327Z,17.90
2018-09-06T21:23:24.732Z,18.00
2018-09-06T21:25:53.099Z,18.00
2018-09-06T21:28:21.466Z,18.00
2018-09-06T21:30:49.875Z,18.00
2018-09-06T21:33:18.248Z,18.00
2018-09-06T21:35:46.735Z,18.00
2018-09-06T21:38:15.169Z,18.00
2018-09-06T21:40:43.632Z,18.00
2018-09-06T21:43:12.619Z,18.00
2018-09-06T21:45:41.563Z,18.00
2018-09-06T21:48:10.275Z,18.10
2018-09-06T21:50:39.506Z,18.10
2018-09-06T21:53:08.641Z,18.00
2018-09-06T21:55:37.319Z,18.00
2018-09-06T21:58:06.532Z,17.90
2018-09-06T22:00:35.388Z,17.90
2018-09-06T22:03:09.538Z,17.80
2018-09-06T22:05:38.419Z,17.80
2018-09-06T22:08:07.193Z,17.80
2018-09-06T22:10:35.904Z,17.70
2018-09-06T22:13:18.758Z,17.70
2018-09-06T22:15:49.513Z,17.70
2018-09-06T22:18:21.279Z,17.70
2018-09-06T22:20:50.098Z,17.60
2018-09-06T22:23:18.831Z,17.60
2018-09-06T22:25:47.569Z,17.60
2018-09-06T22:28:16.241Z,17.60
2018-09-06T22:30:45.091Z,17.50
2018-09-06T22:33:13.808Z,17.50
2018-09-06T22:35:42.764Z,17.50
2018-09-06T22:38:11.449Z,17.50
2018-09-06T22:40:40.312Z,17.40
2018-09-06T22:43:08.945Z,17.40
2018-09-06T22:45:37.675Z,17.40
2018-09-06T22:48:06.405Z,17.40
2018-09-06T22:50:35.185Z,17.40
2018-09-06T22:53:03.917Z,17.40
2018-09-06T22:55:32.832Z,17.40
2018-09-06T22:58:01.594Z,17.30
2018-09-06T23:00:31.066Z,17.30
2018-09-06T23:03:04.889Z,17.30
2018-09-06T23:05:34.647Z,17.30
2018-09-06T23:08:04.241Z,17.20
2018-09-06T23:10:32.986Z,17.10
2018-09-06T23:13:01.679Z,17.10
2018-09-06T23:15:30.377Z,17.10
2018-09-06T23:17:59.441Z,17.10
2018-09-06T23:20:28.541Z,17.10
2018-09-06T23:22:57.253Z,17.10
2018-09-06T23:25:25.936Z,17.10
2018-09-06T23:27:54.923Z,17.10
2018-09-06T23:30:24.829Z,17.10
2018-09-06T23:32:54.034Z,17.10
2018-09-06T23:35:22.784Z,17.10
2018-09-06T23:37:51.533Z,17.10
2018-09-06T23:40:20.305Z,17.10
2018-09-06T23:42:49.089Z,17.10
2018-09-06T23:45:17.780Z,17.10
2018-09-06T23:47:46.522Z,17.10
2018-09-06T23:50:15.179Z,17.00
2018-09-06T23:52:43.893Z,17.00
2018-09-06T23:55:12.601Z,17.00
2018-09-06T23:57:41.317Z,17.00
